Time;durP1;ratioP1;P1;durP2;ratioP2;P2;SDS_P1;SDS_P2;PMS_P1;PMS_P2;Temp;Humidity;BMP_temperature;BMP_pressure;BME280_temperature;BME280_humidity;BME280_pressure;Samples;Min_cycle;Max_cycle;Signal;HPM_P1;HPM_P2
2023/07/04 00:01:26;;;;;;;7.57;1.23;;;;;;;11.54;100.00;99901.06;4953397;28;20114;-80
2023/07/04 00:03:55;;;;;;;5.03;1.15;;;;;;;11.58;100.00;99904.22;4955032;28;20064;-79
2023/07/04 00:06:23;;;;;;;8.05;1.95;;;;;;;11.55;100.00;99897.41;4956050;28;20118;-81
2023/07/04 00:08:50;;;;;;;4.53;1.05;;;;;;;11.53;100.00;99902.06;4973398;28;20042;-82
2023/07/04 00:11:16;;;;;;;12.60;1.40;;;;;;;11.56;100.00;99903.53;4971878;28;20031;-81
2023/07/04 00:13:42;;;;;;;9.18;1.25;;;;;;;11.55;100.00;99908.00;4972744;28;20393;-81
2023/07/04 00:16:11;;;;;;;8.35;1.50;;;;;;;11.59;100.00;99903.22;4975947;28;20493;-80
2023/07/04 00:18:38;;;;;;;7.80;1.20;;;;;;;11.57;100.00;99900.75;4966497;28;20137;-80
2023/07/04 00:21:06;;;;;;;7.57;1.30;;;;;;;11.52;100.00;99901.22;4956414;28;20117;-81
2023/07/04 00:23:35;;;;;;;10.30;1.40;;;;;;;11.50;100.00;99899.72;4949262;28;20478;-81
2023/07/04 00:26:07;;;;;;;8.07;1.13;;;;;;;11.46;100.00;99901.88;4968642;28;20039;-81
2023/07/04 00:28:34;;;;;;;5.25;1.02;;;;;;;11.44;100.00;99903.03;4954152;28;20493;-81
2023/07/04 00:31:03;;;;;;;4.72;1.40;;;;;;;11.41;100.00;99902.38;4972767;28;20045;-80
2023/07/04 00:33:31;;;;;;;10.13;1.75;;;;;;;11.38;100.00;99893.94;4940142;28;20481;-81
2023/07/04 00:36:07;;;;;;;7.28;1.80;;;;;;;11.44;100.00;99895.91;4957877;28;20078;-80
2023/07/04 00:38:34;;;;;;;5.32;1.50;;;;;;;11.45;100.00;99894.13;4969923;28;20093;-80
2023/07/04 00:41:06;;;;;;;9.68;1.33;;;;;;;11.50;100.00;99889.97;4972981;28;20035;-81
2023/07/04 00:43:59;;;;;;;5.05;1.10;;;;;;;11.46;100.00;99890.47;4958913;28;20031;-81
2023/07/04 00:46:52;;;;;;;9.73;1.95;;;;;;;11.46;100.00;99891.31;4981154;28;20046;-80
2023/07/04 00:49:23;;;;;;;5.75;1.23;;;;;;;11.42;100.00;99889.94;4977833;28;20031;-80
2023/07/04 00:51:57;;;;;;;10.00;1.52;;;;;;;11.37;100.00;99879.88;4938073;28;20081;-81
2023/07/04 00:54:32;;;;;;;10.05;1.38;;;;;;;11.36;100.00;99880.88;4957898;28;20051;-80
2023/07/04 00:57:06;;;;;;;8.60;1.50;;;;;;;11.33;100.00;99883.84;4957265;28;20485;-81
2023/07/04 00:59:43;;;;;;;13.65;1.92;;;;;;;11.31;100.00;99888.47;4944358;28;20400;-81
2023/07/04 01:02:11;;;;;;;9.02;2.10;;;;;;;11.25;100.00;99883.81;4969870;28;20107;-81
2023/07/04 01:04:38;;;;;;;4.03;1.27;;;;;;;11.23;100.00;99876.03;4940778;28;20133;-81
2023/07/04 01:07:43;;;;;;;6.35;1.42;;;;;;;11.22;100.00;99881.50;4958633;28;20045;-80
2023/07/04 01:10:21;;;;;;;7.03;1.30;;;;;;;11.22;100.00;99877.03;4970006;28;20080;-80
2023/07/04 01:12:48;;;;;;;6.07;1.17;;;;;;;11.19;100.00;99872.09;4955713;28;20059;-80
2023/07/04 01:15:15;;;;;;;5.00;1.52;;;;;;;11.19;100.00;99869.44;4951219;28;20039;-80
2023/07/04 01:17:42;;;;;;;6.72;1.40;;;;;;;11.20;100.00;99871.09;4956217;28;20031;-81
2023/07/04 01:20:11;;;;;;;10.38;1.67;;;;;;;11.15;100.00;99863.63;4940074;28;20851;-80
2023/07/04 01:22:43;;;;;;;8.35;1.90;;;;;;;11.09;100.00;99866.94;4944110;28;20401;-80
2023/07/04 01:25:21;;;;;;;5.03;1.30;;;;;;;11.10;100.00;99871.22;4957974;28;20062;-79
2023/07/04 01:27:49;;;;;;;7.63;2.05;;;;;;;11.07;100.00;99868.09;4972102;28;20450;-81
2023/07/04 01:30:17;;;;;;;8.38;1.77;;;;;;;11.04;100.00;99874.50;4921803;29;20110;-81
2023/07/04 01:32:44;;;;;;;7.82;1.58;;;;;;;11.02;100.00;99868.56;4955535;28;20429;-81
2023/07/04 01:35:13;;;;;;;11.48;1.80;;;;;;;11.02;100.00;99860.66;4957058;28;20031;-82
2023/07/04 01:37:39;;;;;;;8.52;1.90;;;;;;;10.97;100.00;99866.41;4954070;28;20038;-81
2023/07/04 01:40:09;;;;;;;8.73;1.75;;;;;;;10.94;100.00;99861.44;4955293;28;20578;-80
2023/07/04 01:42:36;;;;;;;7.18;1.75;;;;;;;10.89;100.00;99855.81;4956049;28;20034;-81
2023/07/04 01:45:05;;;;;;;9.15;1.90;;;;;;;10.87;100.00;99855.97;4957557;28;20504;-81
2023/07/04 01:47:34;;;;;;;9.10;1.40;;;;;;;10.85;100.00;99854.47;4958902;28;20058;-81
2023/07/04 01:50:01;;;;;;;8.48;1.70;;;;;;;10.77;100.00;99849.97;4971339;28;20481;-81
2023/07/04 01:52:28;;;;;;;9.73;1.40;;;;;;;10.73;100.00;99846.00;4941746;28;20041;-81
2023/07/04 01:54:54;;;;;;;12.07;1.40;;;;;;;10.68;100.00;99849.13;4936949;29;20130;-82
2023/07/04 01:57:21;;;;;;;9.98;1.88;;;;;;;10.65;100.00;99847.63;4955069;28;20043;-81
2023/07/04 01:59:47;;;;;;;10.13;1.67;;;;;;;10.63;100.00;99859.34;4968860;28;20548;-82
2023/07/04 02:02:14;;;;;;;8.13;2.20;;;;;;;10.61;100.00;99848.09;4958489;28;20031;-81
2023/07/04 02:04:40;;;;;;;7.80;1.52;;;;;;;10.57;100.00;99844.97;4950732;28;20386;-81
2023/07/04 02:07:07;;;;;;;13.70;1.58;;;;;;;10.56;100.00;99840.66;4934831;29;20073;-80
2023/07/04 02:09:32;;;;;;;12.18;1.90;;;;;;;10.56;100.00;99845.13;4966633;28;20482;-81
2023/07/04 02:11:58;;;;;;;8.90;1.77;;;;;;;10.59;100.00;99852.75;4934943;29;20035;-81
2023/07/04 02:14:25;;;;;;;8.80;1.42;;;;;;;10.57;100.00;99844.13;4948704;28;20035;-81
2023/07/04 02:16:51;;;;;;;10.55;1.60;;;;;;;10.57;100.00;99839.69;4914731;29;20442;-81
2023/07/04 02:19:18;;;;;;;9.20;1.40;;;;;;;10.57;100.00;99839.69;4932973;29;20521;-81
2023/07/04 02:21:44;;;;;;;9.23;1.25;;;;;;;10.57;100.00;99836.22;4950855;28;20027;-81
2023/07/04 02:24:10;;;;;;;11.88;1.73;;;;;;;10.58;100.00;99845.78;4944813;28;20028;-81
2023/07/04 02:26:36;;;;;;;12.05;2.08;;;;;;;10.60;100.00;99830.59;4950649;28;20393;-81
2023/07/04 02:29:03;;;;;;;9.15;1.83;;;;;;;10.65;100.00;99830.97;4950409;28;20031;-81
2023/07/04 02:31:28;;;;;;;25.58;4.43;;;;;;;10.67;100.00;99821.06;4965521;28;20039;-81
2023/07/04 02:33:54;;;;;;;15.02;1.75;;;;;;;10.71;100.00;99826.84;4949296;28;20042;-81
2023/07/04 02:36:21;;;;;;;11.07;1.50;;;;;;;10.73;100.00;99831.00;4963938;28;20045;-81
2023/07/04 02:38:47;;;;;;;6.85;1.67;;;;;;;10.76;100.00;99828.03;4952156;28;20035;-81
2023/07/04 02:41:13;;;;;;;7.95;2.22;;;;;;;10.81;100.00;99824.06;4950958;28;20490;-80
2023/07/04 02:43:40;;;;;;;9.50;2.10;;;;;;;10.83;100.00;99822.09;4944007;28;20042;-81
2023/07/04 02:46:07;;;;;;;11.48;2.00;;;;;;;10.85;100.00;99822.72;4946524;28;20098;-81
2023/07/04 02:48:35;;;;;;;6.60;1.58;;;;;;;10.85;100.00;99826.22;4943592;28;20039;-81
2023/07/04 02:51:02;;;;;;;9.70;1.75;;;;;;;10.83;100.00;99820.25;4947067;28;20031;-81
2023/07/04 02:53:29;;;;;;;9.10;1.67;;;;;;;10.81;100.00;99824.91;4965000;28;20516;-81
2023/07/04 02:55:55;;;;;;;5.10;1.20;;;;;;;10.79;100.00;99819.78;4935342;29;20031;-81
2023/07/04 02:58:24;;;;;;;11.88;1.92;;;;;;;10.77;100.00;99810.34;4953592;28;20090;-81
2023/07/04 03:00:52;;;;;;;10.98;1.40;;;;;;;10.76;100.00;99813.97;4950002;28;20035;-82
2023/07/04 03:03:21;;;;;;;7.88;1.40;;;;;;;10.76;100.00;99812.16;4935635;29;20437;-81
2023/07/04 03:05:48;;;;;;;10.23;1.67;;;;;;;10.73;100.00;99806.38;4952029;28;20126;-81
2023/07/04 03:08:14;;;;;;;11.10;1.63;;;;;;;10.75;100.00;99814.97;4954729;28;20122;-81
2023/07/04 03:10:47;;;;;;;7.20;1.25;;;;;;;10.77;100.00;99808.53;4962923;28;20077;-81
2023/07/04 03:13:15;;;;;;;7.32;1.15;;;;;;;10.71;100.00;99806.53;4949066;28;20035;-81
2023/07/04 03:15:41;;;;;;;8.40;1.58;;;;;;;10.69;100.00;99813.78;4935757;28;20036;-81
2023/07/04 03:18:08;;;;;;;6.32;1.52;;;;;;;10.67;100.00;99811.28;4949064;28;20515;-81
2023/07/04 03:20:35;;;;;;;11.02;1.65;;;;;;;10.64;100.00;99813.44;4934273;28;20040;-81
2023/07/04 03:23:02;;;;;;;6.85;1.52;;;;;;;10.62;100.00;99815.41;4951894;28;20063;-81
2023/07/04 03:25:27;;;;;;;7.57;1.45;;;;;;;10.64;100.00;99813.44;4956323;28;20032;-81
2023/07/04 03:27:56;;;;;;;11.18;1.58;;;;;;;10.61;100.00;99814.59;4950196;28;20102;-81
2023/07/04 03:30:26;;;;;;;6.55;1.02;;;;;;;10.59;100.00;99805.19;4966758;28;20042;-81
2023/07/04 03:32:55;;;;;;;3.97;1.27;;;;;;;10.60;100.00;99801.53;4967663;28;20602;-81
2023/07/04 03:35:21;;;;;;;6.75;1.27;;;;;;;10.59;100.00;99803.34;4966268;28;20075;-81
2023/07/04 03:37:47;;;;;;;5.82;1.40;;;;;;;10.58;100.00;99796.41;4937205;28;20060;-81
2023/07/04 03:40:14;;;;;;;6.80;1.08;;;;;;;10.60;100.00;99793.59;4955883;28;20085;-81
2023/07/04 03:42:40;;;;;;;7.30;1.40;;;;;;;10.58;100.00;99793.75;4968469;28;20031;-81
2023/07/04 03:45:07;;;;;;;8.85;0.93;;;;;;;10.58;100.00;99788.47;4962409;28;20034;-80
2023/07/04 03:47:33;;;;;;;3.45;1.08;;;;;;;10.54;100.00;99795.09;4931964;29;20042;-80
2023/07/04 03:49:59;;;;;;;4.28;1.38;;;;;;;10.50;100.00;99789.28;4949239;28;20028;-80
2023/07/04 03:52:25;;;;;;;7.75;1.23;;;;;;;10.46;100.00;99784.44;4943076;28;20424;-80
2023/07/04 03:54:51;;;;;;;8.43;1.40;;;;;;;10.40;100.00;99783.28;4949561;28;20489;-81
2023/07/04 03:57:17;;;;;;;6.57;1.50;;;;;;;10.26;100.00;99777.59;4957785;28;20045;-81
2023/07/04 03:59:43;;;;;;;9.85;1.50;;;;;;;10.18;100.00;99788.13;4963430;28;20386;-81
2023/07/04 04:02:09;;;;;;;5.80;1.13;;;;;;;10.10;100.00;99775.72;4954633;28;20030;-81
2023/07/04 04:04:39;;;;;;;13.02;1.30;;;;;;;10.02;100.00;99776.50;4951705;28;20027;-81
2023/07/04 04:07:07;;;;;;;7.88;1.55;;;;;;;10.00;100.00;99775.81;4937141;28;20042;-81
2023/07/04 04:09:34;;;;;;;8.63;0.95;;;;;;;9.98;100.00;99769.91;4946245;28;20451;-81
2023/07/04 04:12:00;;;;;;;4.10;1.23;;;;;;;9.95;100.00;99774.66;4924064;28;20572;-81
2023/07/04 04:14:29;;;;;;;9.70;1.70;;;;;;;9.92;100.00;99773.16;4955105;28;20066;-81
2023/07/04 04:16:55;;;;;;;7.13;1.02;;;;;;;9.88;100.00;99790.28;4968387;28;20639;-81
2023/07/04 04:19:20;;;;;;;9.60;1.25;;;;;;;9.86;100.00;99784.34;4962141;28;20030;-81
2023/07/04 04:21:47;;;;;;;7.63;1.20;;;;;;;9.83;100.00;99780.19;4939630;28;20493;-81
2023/07/04 04:24:13;;;;;;;8.35;1.50;;;;;;;9.84;100.00;99781.03;4948264;28;20042;-81
2023/07/04 04:26:40;;;;;;;4.40;1.02;;;;;;;9.86;100.00;99779.88;4938397;28;20078;-81
2023/07/04 04:29:06;;;;;;;8.10;1.38;;;;;;;9.91;100.00;99784.69;4979372;28;20085;-81
2023/07/04 04:31:37;;;;;;;5.63;1.27;;;;;;;9.94;100.00;99781.72;4941481;28;20430;-81
2023/07/04 04:34:04;;;;;;;7.00;1.60;;;;;;;9.93;100.00;99786.22;4952340;28;20053;-81
2023/07/04 04:36:30;;;;;;;7.22;1.52;;;;;;;9.94;100.00;99784.38;4940011;28;20046;-81
2023/07/04 04:38:56;;;;;;;5.57;1.60;;;;;;;9.91;100.00;99774.97;4968194;28;20560;-80
2023/07/04 04:41:22;;;;;;;8.05;1.17;;;;;;;9.89;100.00;99776.94;4939887;28;20043;-81
2023/07/04 04:43:50;;;;;;;6.10;1.35;;;;;;;9.87;100.00;99775.44;4956428;28;20041;-81
2023/07/04 04:46:16;;;;;;;6.38;1.13;;;;;;;9.82;100.00;99777.72;4940562;28;20084;-81
2023/07/04 04:48:42;;;;;;;7.57;1.20;;;;;;;9.75;100.00;99773.06;4933745;28;20034;-81
2023/07/04 04:51:12;;;;;;;8.85;1.17;;;;;;;9.74;100.00;99765.28;4959655;28;20039;-81
2023/07/04 04:53:41;;;;;;;8.48;1.05;;;;;;;9.75;100.00;99769.56;4933633;29;20138;-80
2023/07/04 04:56:08;;;;;;;5.63;1.33;;;;;;;9.79;100.00;99769.13;4951500;29;20062;-81
2023/07/04 04:58:35;;;;;;;3.63;1.05;;;;;;;9.82;100.00;99775.91;4937799;29;20070;-81
2023/07/04 05:01:22;;;;;;;4.55;1.05;;;;;;;9.86;100.00;99773.78;4954138;28;20035;-81
2023/07/04 05:03:52;;;;;;;7.18;1.10;;;;;;;9.83;100.00;99772.28;4937352;29;20139;-80
2023/07/04 05:06:19;;;;;;;7.72;1.13;;;;;;;9.86;100.00;99777.25;4940591;28;20114;-81
2023/07/04 05:08:46;;;;;;;5.90;1.35;;;;;;;9.89;100.00;99784.84;4961605;28;20417;-81
2023/07/04 05:11:13;;;;;;;9.10;1.30;;;;;;;9.96;100.00;99777.13;4937620;28;20477;-80
2023/07/04 05:13:40;;;;;;;6.47;1.10;;;;;;;10.03;100.00;99775.50;4959447;28;20070;-81
2023/07/04 05:16:09;;;;;;;4.82;0.98;;;;;;;10.11;100.00;99773.91;4968435;28;20457;-81
2023/07/04 05:18:36;;;;;;;4.93;1.23;;;;;;;10.10;100.00;99766.97;4938109;29;20031;-81
2023/07/04 05:21:05;;;;;;;5.13;1.20;;;;;;;10.16;100.00;99769.00;4952383;28;20389;-81
2023/07/04 05:23:34;;;;;;;7.43;1.48;;;;;;;10.18;100.00;99772.28;4946230;29;20043;-81
2023/07/04 05:26:11;;;;;;;9.35;1.60;;;;;;;10.20;100.00;99774.75;4958859;28;20057;-81
2023/07/04 05:28:38;;;;;;;6.13;1.05;;;;;;;10.20;100.00;99772.97;4952217;28;20043;-80
2023/07/04 05:31:07;;;;;;;10.63;1.70;;;;;;;10.21;100.00;99774.59;4954317;28;20158;-81
2023/07/04 05:33:34;;;;;;;13.20;1.80;;;;;;;10.18;100.00;99770.47;4939367;28;20032;-81
2023/07/04 05:36:03;;;;;;;8.43;1.60;;;;;;;10.24;100.00;99771.66;4936961;28;20050;-81
2023/07/04 05:38:29;;;;;;;5.55;1.15;;;;;;;10.29;100.00;99776.44;4938736;28;20122;-80
2023/07/04 05:40:55;;;;;;;8.40;1.20;;;;;;;10.34;100.00;99776.81;4934973;29;20446;-80
2023/07/04 05:43:21;;;;;;;4.53;0.60;;;;;;;10.34;100.00;99773.31;4932181;28;20043;-81
2023/07/04 05:45:48;;;;;;;8.65;1.30;;;;;;;10.34;100.00;99771.53;4968790;28;20046;-81
2023/07/04 05:48:14;;;;;;;5.63;1.00;;;;;;;10.38;100.00;99772.03;4954645;28;20041;-81
2023/07/04 05:50:51;;;;;;;15.95;1.52;;;;;;;10.48;100.00;99771.94;4962380;28;20019;-80
2023/07/04 05:53:17;;;;;;;9.40;1.40;;;;;;;10.48;100.00;99779.88;4917234;28;20065;-80
2023/07/04 05:55:43;;;;;;;3.25;1.00;;;;;;;10.51;100.00;99779.56;4946852;29;20067;-80
2023/07/04 05:58:09;;;;;;;9.63;1.85;;;;;;;10.54;100.00;99769.47;4951790;28;20600;-80
2023/07/04 06:00:35;;;;;;;5.72;1.00;;;;;;;10.60;100.00;99775.09;4933018;29;20478;-80
2023/07/04 06:03:03;;;;;;;6.38;1.38;;;;;;;10.64;100.00;99771.97;4947131;28;20469;-80
2023/07/04 06:05:30;;;;;;;6.22;1.33;;;;;;;10.66;100.00;99777.09;4943367;29;20039;-81
2023/07/04 06:07:56;;;;;;;6.82;1.17;;;;;;;10.71;100.00;99772.16;4948015;28;20035;-81
2023/07/04 06:10:22;;;;;;;5.57;1.60;;;;;;;10.77;100.00;99765.38;4939464;29;20074;-81
2023/07/04 06:12:50;;;;;;;6.97;1.42;;;;;;;10.81;100.00;99766.75;4949464;28;20119;-81
2023/07/04 06:15:16;;;;;;;5.15;0.98;;;;;;;10.86;100.00;99766.25;4953636;28;20034;-81
2023/07/04 06:17:42;;;;;;;10.00;1.58;;;;;;;10.89;100.00;99766.72;4919932;28;20161;-81
2023/07/04 06:20:08;;;;;;;6.75;1.40;;;;;;;10.94;100.00;99760.13;4943593;29;20570;-82
2023/07/04 06:22:34;;;;;;;6.82;1.05;;;;;;;10.97;100.00;99765.94;4953612;28;20695;-81
2023/07/04 06:25:00;;;;;;;6.10;1.25;;;;;;;11.04;100.00;99763.44;4949116;28;20043;-81
2023/07/04 06:27:27;;;;;;;6.47;1.30;;;;;;;11.13;100.00;99764.28;4952657;28;20050;-81
2023/07/04 06:29:55;;;;;;;8.80;1.23;;;;;;;11.20;100.00;99773.22;4946046;28;20027;-81
2023/07/04 06:32:21;;;;;;;5.88;1.10;;;;;;;11.25;100.00;99767.41;4941573;28;20035;-81
2023/07/04 06:34:47;;;;;;;11.15;1.40;;;;;;;11.29;100.00;99764.28;4935276;29;20042;-81
2023/07/04 06:37:12;;;;;;;6.53;1.30;;;;;;;11.35;100.00;99764.63;4948949;28;20035;-81
2023/07/04 06:39:38;;;;;;;10.63;1.70;;;;;;;11.40;100.00;99762.31;4949535;28;20390;-81
2023/07/04 06:42:04;;;;;;;6.55;1.70;;;;;;;11.46;100.00;99764.28;4951434;28;20121;-81
2023/07/04 06:44:38;;;;;;;6.40;1.30;;;;;;;11.51;100.00;99763.78;4938823;29;20489;-81
2023/07/04 06:47:04;;;;;;;12.70;1.83;;;;;;;11.51;100.00;99759.31;4932653;29;20043;-80
2023/07/04 06:49:30;;;;;;;7.00;1.45;;;;;;;11.53;100.00;99759.97;4940115;28;20062;-80
2023/07/04 06:51:56;;;;;;;9.80;1.45;;;;;;;11.60;100.00;99768.06;4933084;29;20059;-81
2023/07/04 06:54:23;;;;;;;11.10;1.23;;;;;;;11.64;100.00;99764.06;4961514;28;20071;-80
2023/07/04 06:56:48;;;;;;;8.27;1.50;;;;;;;11.72;100.00;99759.78;4936536;29;20035;-80
2023/07/04 06:59:14;;;;;;;6.35;1.25;;;;;;;11.76;100.00;99755.78;4935439;29;20065;-80
2023/07/04 07:01:42;;;;;;;8.68;1.52;;;;;;;11.77;100.00;99754.78;4964612;28;20032;-80
2023/07/04 07:04:08;;;;;;;5.47;1.58;;;;;;;11.79;100.00;99756.28;4969495;28;20043;-80
2023/07/04 07:06:34;;;;;;;6.55;1.65;;;;;;;11.81;100.00;99750.81;4953164;28;20035;-79
2023/07/04 07:09:03;;;;;;;4.80;1.33;;;;;;;11.83;100.00;99758.59;4950262;28;20041;-80
2023/07/04 07:11:29;;;;;;;5.03;1.30;;;;;;;11.85;100.00;99756.59;4936018;28;20043;-80
2023/07/04 07:13:55;;;;;;;8.90;1.27;;;;;;;11.89;100.00;99752.59;4948239;28;20510;-80
2023/07/04 07:16:24;;;;;;;6.70;1.38;;;;;;;11.98;100.00;99756.88;4932210;28;20034;-80
2023/07/04 07:18:53;;;;;;;7.65;1.77;;;;;;;12.01;100.00;99753.88;4957199;28;20035;-81
2023/07/04 07:21:21;;;;;;;6.93;1.35;;;;;;;12.13;100.00;99748.25;4922673;29;20035;-80
2023/07/04 07:23:52;;;;;;;8.90;1.35;;;;;;;12.32;100.00;99748.81;4938223;28;20036;-80
2023/07/04 07:26:20;;;;;;;8.82;1.45;;;;;;;12.62;100.00;99743.69;4963061;28;20031;-80
2023/07/04 07:28:47;;;;;;;9.57;1.75;;;;;;;12.91;100.00;99744.84;4955386;28;20063;-81
2023/07/04 07:31:18;;;;;;;5.05;1.08;;;;;;;13.15;100.00;99735.84;4938286;28;20031;-80
2023/07/04 07:33:45;;;;;;;10.15;1.55;;;;;;;13.37;100.00;99738.66;4935393;28;20528;-80
2023/07/04 07:36:23;;;;;;;10.05;1.75;;;;;;;13.67;100.00;99739.72;4933643;29;20110;-80
2023/07/04 07:38:51;;;;;;;6.78;1.38;;;;;;;13.94;100.00;99746.22;4940136;28;20478;-81
2023/07/04 07:41:19;;;;;;;10.63;1.40;;;;;;;14.12;100.00;99734.41;4934699;29;20038;-81
2023/07/04 07:43:45;;;;;;;6.15;1.13;;;;;;;14.27;100.00;99748.50;4949512;28;20195;-81
2023/07/04 07:46:14;;;;;;;9.30;1.63;;;;;;;14.36;100.00;99740.41;4963374;28;20039;-80
2023/07/04 07:48:40;;;;;;;9.98;1.45;;;;;;;14.48;100.00;99743.38;4948718;28;20114;-80
2023/07/04 07:51:09;;;;;;;10.82;1.27;;;;;;;14.64;100.00;99742.34;4959781;28;20193;-80
2023/07/04 07:53:36;;;;;;;7.57;1.60;;;;;;;14.78;100.00;99750.47;4938592;28;20125;-80
2023/07/04 07:56:07;;;;;;;13.20;1.50;;;;;;;14.80;100.00;99746.63;4968873;28;20520;-81
2023/07/04 07:58:33;;;;;;;4.93;1.10;;;;;;;14.68;100.00;99738.31;4955345;28;20134;-80
2023/07/04 08:01:00;;;;;;;10.13;1.60;;;;;;;14.65;100.00;99738.69;4948914;28;20037;-80
2023/07/04 08:03:27;;;;;;;7.88;1.75;;;;;;;14.73;100.00;99735.88;4974675;28;20022;-81
2023/07/04 08:05:53;;;;;;;5.47;1.05;;;;;;;14.70;100.00;99744.25;4952978;28;20038;-79
2023/07/04 08:08:19;;;;;;;7.15;1.30;;;;;;;14.69;100.00;99739.13;4969790;28;20066;-80
2023/07/04 08:10:44;;;;;;;8.60;1.38;;;;;;;14.77;100.00;99736.34;4918646;28;20026;-81
2023/07/04 08:13:12;;;;;;;5.10;1.20;;;;;;;14.83;100.00;99737.44;4971479;28;20042;-81
2023/07/04 08:15:37;;;;;;;13.63;1.77;;;;;;;14.87;100.00;99738.72;4968623;28;20405;-80
2023/07/04 08:18:08;;;;;;;6.03;1.08;;;;;;;14.97;100.00;99731.22;4953585;28;20052;-80
2023/07/04 08:20:35;;;;;;;6.20;1.10;;;;;;;14.93;100.00;99734.47;4973287;28;20085;-81
2023/07/04 08:23:01;;;;;;;4.32;1.08;;;;;;;14.85;100.00;99735.41;4960701;28;20539;-80
2023/07/04 08:25:27;;;;;;;6.57;1.00;;;;;;;14.71;100.00;99729.94;4947955;28;20046;-80
2023/07/04 08:27:53;;;;;;;7.82;1.25;;;;;;;14.54;100.00;99728.53;4988905;28;20035;-81
2023/07/04 08:30:20;;;;;;;9.50;1.30;;;;;;;14.59;100.00;99731.44;4957041;28;20031;-82
2023/07/04 08:32:46;;;;;;;5.75;1.20;;;;;;;14.70;100.00;99725.63;4971815;28;20208;-81
2023/07/04 08:35:12;;;;;;;8.35;1.10;;;;;;;14.80;100.00;99730.66;4960842;28;20098;-82
2023/07/04 08:37:38;;;;;;;12.82;1.83;;;;;;;14.92;100.00;99724.84;4939084;29;20039;-81
2023/07/04 08:40:05;;;;;;;6.95;1.27;;;;;;;15.12;100.00;99728.50;4966665;28;20047;-81
2023/07/04 08:42:33;;;;;;;5.00;1.30;;;;;;;15.16;100.00;99731.59;4984492;28;20041;-80
2023/07/04 08:45:00;;;;;;;10.30;1.88;;;;;;;15.06;100.00;99725.78;4986112;28;20027;-81
2023/07/04 08:47:26;;;;;;;8.45;1.42;;;;;;;15.08;100.00;99726.41;4971664;28;20114;-81
2023/07/04 08:50:01;;;;;;;6.95;1.35;;;;;;;15.12;100.00;99727.66;4940312;28;20088;-80
2023/07/04 08:52:39;;;;;;;9.32;1.52;;;;;;;15.01;100.00;99731.69;4956827;28;20047;-82
2023/07/04 08:55:11;;;;;;;7.90;0.90;;;;;;;14.94;100.00;99722.81;4941114;28;20054;-80
2023/07/04 08:57:47;;;;;;;3.95;1.15;;;;;;;14.85;100.00;99730.94;4937442;29;20043;-82
2023/07/04 09:00:32;;;;;;;;;;;;;;;14.63;100.00;99732.72;4971047;28;20034;-81
2023/07/04 09:03:09;;;;;;;5.18;0.93;;;;;;;14.61;100.00;99722.28;4940771;28;19914;-81
2023/07/04 09:05:57;;;;;;;9.15;1.30;;;;;;;14.64;100.00;99721.06;4953259;28;20066;-80
2023/07/04 09:08:43;;;;;;;9.02;1.33;;;;;;;14.82;100.00;99714.50;4965681;28;20027;-82
2023/07/04 09:11:11;;;;;;;8.52;1.33;;;;;;;15.06;100.00;99717.78;4925328;28;20129;-81
2023/07/04 09:13:41;;;;;;;9.90;1.40;;;;;;;15.21;100.00;99715.06;4959069;28;20038;-83
2023/07/04 09:16:20;;;;;;;5.40;1.15;;;;;;;15.19;100.00;99711.75;4972137;28;20030;-82
2023/07/04 09:18:56;;;;;;;5.28;0.80;;;;;;;15.25;100.00;99716.31;4942517;28;20099;-83
2023/07/04 09:21:23;;;;;;;;;;;;;;;15.18;100.00;99716.25;4972402;28;20031;-83
2023/07/04 09:23:51;;;;;;;5.85;1.08;;;;;;;15.33;100.00;99710.84;4948414;28;19925;-82
2023/07/04 09:26:27;;;;;;;6.00;1.00;;;;;;;15.39;100.00;99711.91;4947074;28;20042;-82
2023/07/04 09:28:57;;;;;;;6.88;1.33;;;;;;;15.48;100.00;99709.94;4958090;28;20057;-84
2023/07/04 09:31:29;;;;;;;6.78;1.20;;;;;;;15.65;100.00;99701.59;4951956;28;20035;-87
2023/07/04 09:33:56;;;;;;;4.22;0.90;;;;;;;15.69;100.00;99706.34;4970018;28;20055;-86
2023/07/04 09:36:29;;;;;;;4.30;0.90;;;;;;;15.81;100.00;99711.97;4942533;28;20460;-86
2023/07/04 09:39:05;;;;;;;4.10;1.02;;;;;;;15.85;100.00;99715.03;4985683;28;20035;-88
2023/07/04 09:41:40;;;;;;;6.72;1.05;;;;;;;15.92;100.00;99715.06;4959120;28;20034;-87
2023/07/04 09:44:19;;;;;;;2.20;0.55;;;;;;;16.03;100.00;99706.53;4969523;28;20062;-86
2023/07/04 09:46:53;;;;;;;8.15;0.90;;;;;;;16.15;100.00;99705.97;4960672;28;20037;-80
2023/07/04 09:49:25;;;;;;;2.65;0.73;;;;;;;16.19;100.00;99702.72;4946244;28;20081;-88
2023/07/04 09:51:59;;;;;;;9.40;0.80;;;;;;;16.28;100.00;99702.50;4948619;28;20062;-87
2023/07/04 09:54:26;;;;;;;3.95;0.80;;;;;;;16.37;100.00;99706.66;4949942;28;20051;-88
2023/07/04 09:56:52;;;;;;;8.23;1.00;;;;;;;16.46;100.00;99716.13;4950730;29;20038;-87
2023/07/04 09:59:26;;;;;;;4.10;0.82;;;;;;;16.48;100.00;99698.06;4921062;28;20075;-91
2023/07/04 10:01:58;;;;;;;3.23;0.63;;;;;;;16.61;100.00;99701.78;4933179;29;20045;-87
2023/07/04 10:04:35;;;;;;;4.50;1.10;;;;;;;16.63;100.00;99707.72;4939764;28;20676;-86
2023/07/04 10:07:05;;;;;;;4.60;0.52;;;;;;;16.61;100.00;99701.78;4934748;29;20032;-89
2023/07/04 10:09:33;;;;;;;4.60;0.80;;;;;;;16.67;100.00;99698.31;4939641;29;20035;-88
2023/07/04 10:12:13;;;;;;;3.55;0.60;;;;;;;16.82;100.00;99697.28;4957361;28;20113;-87
2023/07/04 10:14:57;;;;;;;4.40;0.90;;;;;;;16.70;100.00;99703.25;4922871;29;20039;-87
2023/07/04 10:17:32;;;;;;;4.75;0.90;;;;;;;16.46;100.00;99697.47;4940018;29;20050;-89
2023/07/04 10:20:08;;;;;;;4.75;0.70;;;;;;;16.32;100.00;99696.59;4947198;29;20035;-86
2023/07/04 10:22:41;;;;;;;3.15;0.70;;;;;;;16.27;100.00;99693.72;4954734;28;20079;-87
2023/07/04 10:25:16;;;;;;;5.43;1.52;;;;;;;16.42;100.00;99688.19;4922193;28;20067;-87
2023/07/04 10:27:46;;;;;;;4.75;0.70;;;;;;;16.58;100.00;99691.53;4939992;29;20039;-88
2023/07/04 10:30:16;;;;;;;5.22;0.93;;;;;;;16.79;100.00;99684.34;4939820;28;20110;-89
2023/07/04 10:32:48;;;;;;;4.07;0.73;;;;;;;16.89;100.00;99681.28;4946778;28;20044;-88
2023/07/04 10:35:21;;;;;;;5.85;1.00;;;;;;;16.99;100.00;99679.84;4943205;29;20448;-84
2023/07/04 10:37:52;;;;;;;6.70;1.08;;;;;;;17.09;100.00;99683.97;4955535;28;20114;-88
2023/07/04 10:40:20;;;;;;;5.63;0.82;;;;;;;17.08;100.00;99685.84;4922164;28;20035;-89
2023/07/04 10:42:45;;;;;;;8.13;0.85;;;;;;;17.08;100.00;99682.34;4944796;29;20027;-90
2023/07/04 10:45:15;;;;;;;3.67;0.90;;;;;;;17.17;100.00;99669.59;4939303;29;20043;-88
2023/07/04 10:47:43;;;;;;;4.30;0.95;;;;;;;17.22;100.00;99670.63;4942815;29;20541;-90
2023/07/04 10:50:24;;;;;;;4.10;0.80;;;;;;;17.43;100.00;99658.03;4918227;29;20031;-88
2023/07/04 10:52:50;;;;;;;5.53;0.80;;;;;;;17.64;100.00;99664.16;4939157;29;20039;-90
2023/07/04 10:55:37;;;;;;;7.10;1.60;;;;;;;17.85;100.00;99662.22;4924239;29;20039;-90
2023/07/04 10:58:13;;;;;;;4.97;0.90;;;;;;;18.11;100.00;99657.78;4957187;28;20044;-89
2023/07/04 11:01:07;;;;;;;10.63;1.17;;;;;;;18.23;100.00;99664.13;4948510;29;20043;-90
2023/07/04 11:03:51;;;;;;;2.97;0.70;;;;;;;18.07;100.00;99665.44;4957484;28;20031;-87
2023/07/04 11:06:24;;;;;;;4.03;0.80;;;;;;;17.87;100.00;99662.03;4953492;28;20053;-91
2023/07/04 11:08:51;;;;;;;4.47;1.10;;;;;;;17.69;100.00;99663.53;4960115;28;20470;-90
2023/07/04 11:11:26;;;;;;;3.75;0.70;;;;;;;17.54;100.00;99658.41;4947934;28;20814;-89
2023/07/04 11:13:55;;;;;;;3.88;0.80;;;;;;;17.34;100.00;99656.63;4964379;28;20486;-90
2023/07/04 11:16:28;;;;;;;7.10;1.13;;;;;;;17.28;100.00;99654.81;4945698;29;20063;-91
2023/07/04 11:19:13;;;;;;;3.65;1.17;;;;;;;17.28;100.00;99660.94;4923052;28;20130;-90
2023/07/04 11:22:03;;;;;;;4.15;0.82;;;;;;;17.45;100.00;99652.50;4929079;29;20534;-91
2023/07/04 11:24:38;;;;;;;1.38;0.80;;;;;;;17.75;100.00;99643.13;4912991;29;20035;-90
2023/07/04 11:27:15;;;;;;;2.45;0.75;;;;;;;17.97;100.00;99639.16;4952207;28;20494;-91
2023/07/04 11:29:55;;;;;;;4.60;0.93;;;;;;;18.17;100.00;99645.44;4935880;29;20050;-90
2023/07/04 11:32:25;;;;;;;2.40;0.93;;;;;;;18.22;100.00;99648.28;4935093;28;20055;-90
2023/07/04 11:35:06;;;;;;;6.50;1.08;;;;;;;18.25;100.00;99644.38;4948774;29;20043;-91